Time;durP1;ratioP1;P1;durP2;ratioP2;P2;SDS_P1;SDS_P2;PMS_P1;PMS_P2;Temp;Humidity;BMP_temperature;BMP_pressure;BME280_temperature;BME280_humidity;BME280_pressure;Samples;Min_cycle;Max_cycle;Signal;HPM_P1;HPM_P2
2023/08/02 00:00:58;;;;;;;3.40;2.50;;;;;;;19.04;75.37;97960.00;105516;1262;62508;-22
2023/08/02 00:03:26;;;;;;;3.80;3.10;;;;;;;18.80;75.86;97961.52;105557;1260;62495;-22
2023/08/02 00:05:58;;;;;;;5.30;2.10;;;;;;;18.60;76.78;97959.25;105515;1257;73949;-23
2023/08/02 00:08:26;;;;;;;3.30;2.40;;;;;;;19.03;76.88;97960.22;105129;1258;73462;-23
2023/08/02 00:10:54;;;;;;;2.70;2.30;;;;;;;19.52;75.33;97955.65;105489;1262;74453;-23
2023/08/02 00:13:22;;;;;;;3.60;2.60;;;;;;;19.54;74.30;97953.56;105542;1257;61490;-23
2023/08/02 00:15:53;;;;;;;3.80;2.80;;;;;;;19.38;74.42;97952.21;105531;1260;61110;-23
2023/08/02 00:18:21;;;;;;;6.10;2.90;;;;;;;19.16;75.10;97951.60;105530;1257;76291;-23
2023/08/02 00:20:50;;;;;;;4.30;2.90;;;;;;;18.96;75.53;97948.52;105188;1257;78360;-22
2023/08/02 00:23:18;;;;;;;3.20;1.90;;;;;;;18.77;76.04;97946.38;105529;1258;75186;-22
2023/08/02 00:25:46;;;;;;;5.40;2.20;;;;;;;19.17;76.21;97939.73;105463;1263;61523;-22
2023/08/02 00:28:14;;;;;;;2.80;2.30;;;;;;;19.63;74.79;97935.86;105432;1258;63853;-22
2023/08/02 00:30:46;;;;;;;3.60;2.80;;;;;;;19.64;73.90;97935.38;105442;1262;76406;-22
2023/08/02 00:33:14;;;;;;;4.40;3.40;;;;;;;19.42;74.31;97936.95;105148;1257;75779;-23
2023/08/02 00:35:46;;;;;;;4.30;3.30;;;;;;;19.15;74.76;97935.82;105102;1257;75174;-22
2023/08/02 00:38:14;;;;;;;6.30;3.60;;;;;;;18.90;75.35;97932.66;105088;1266;61167;-23
2023/08/02 00:40:42;;;;;;;3.60;2.50;;;;;;;18.68;76.12;97935.80;105394;1257;61065;-22
2023/08/02 00:43:10;;;;;;;4.00;2.80;;;;;;;19.04;76.19;97937.98;105261;1257;77971;-22
2023/08/02 00:45:39;;;;;;;3.40;2.70;;;;;;;19.46;74.48;97933.74;105297;1257;77326;-23
2023/08/02 00:48:07;;;;;;;5.40;2.70;;;;;;;19.46;74.12;97930.41;105387;1257;72758;-22
2023/08/02 00:50:35;;;;;;;3.50;3.10;;;;;;;19.27;74.13;97927.24;105540;1257;61119;-22
2023/08/02 00:53:02;;;;;;;5.50;3.20;;;;;;;19.03;74.54;97927.84;105511;1258;61185;-22
2023/08/02 00:55:33;;;;;;;4.10;3.00;;;;;;;18.79;75.04;97928.45;105502;1262;76584;-22
2023/08/02 00:58:01;;;;;;;3.50;3.00;;;;;;;18.53;75.76;97927.77;105554;1257;76814;-22
2023/08/02 01:00:29;;;;;;;8.90;3.00;;;;;;;18.36;76.58;97924.50;105601;1261;71458;-22
2023/08/02 01:02:57;;;;;;;5.20;3.60;;;;;;;18.81;76.51;97919.36;105501;1260;61067;-22
2023/08/02 01:05:28;;;;;;;5.00;4.50;;;;;;;19.31;74.59;97919.51;105407;1257;62868;-23
2023/08/02 01:08:01;;;;;;;4.50;4.10;;;;;;;19.36;73.81;97914.88;105213;1258;77655;-22
2023/08/02 01:10:35;;;;;;;5.80;4.60;;;;;;;19.16;73.95;97911.94;105225;1265;76775;-23
2023/08/02 01:13:04;;;;;;;7.00;5.30;;;;;;;18.89;74.42;97909.69;105226;1260;72717;-22
2023/08/02 01:15:32;;;;;;;9.50;5.30;;;;;;;18.61;75.19;97908.04;105424;1264;61209;-23
2023/08/02 01:18:00;;;;;;;4.70;3.20;;;;;;;18.41;76.00;97902.91;105255;1257;61281;-22
2023/08/02 01:20:28;;;;;;;4.60;3.10;;;;;;;18.75;76.24;97905.54;105548;1257;76027;-22
2023/08/02 01:22:57;;;;;;;3.90;2.40;;;;;;;19.20;74.74;97908.19;105614;1257;76655;-23
2023/08/02 01:25:27;;;;;;;4.10;3.00;;;;;;;19.21;74.17;97903.85;105483;1257;74099;-22
2023/08/02 01:28:00;;;;;;;3.90;3.10;;;;;;;19.00;74.30;97907.99;105204;1264;61189;-22
2023/08/02 01:30:31;;;;;;;3.10;2.80;;;;;;;18.72;74.77;97907.23;105103;1257;61272;-22
2023/08/02 01:32:59;;;;;;;3.50;2.60;;;;;;;18.45;75.38;97905.65;105185;1265;75035;-22
2023/08/02 01:35:27;;;;;;;3.20;2.00;;;;;;;18.23;76.37;97903.48;105171;1263;76835;-23
2023/08/02 01:37:56;;;;;;;2.40;2.10;;;;;;;18.58;76.63;97897.61;105105;1263;72655;-22
2023/08/02 01:40:24;;;;;;;2.90;2.50;;;;;;;19.05;75.07;97898.00;105037;1259;62553;-22
2023/08/02 01:42:52;;;;;;;3.50;2.70;;;;;;;19.09;74.50;97901.98;105063;1262;61519;-22
2023/08/02 01:45:19;;;;;;;6.20;3.80;;;;;;;18.90;74.59;97896.55;105045;1259;72700;-22
2023/08/02 01:47:48;;;;;;;3.80;3.10;;;;;;;18.66;75.08;97896.06;105082;1263;77013;-25
2023/08/02 01:50:16;;;;;;;8.30;3.50;;;;;;;18.42;75.77;97897.39;105050;1257;72679;-22
2023/08/02 01:52:48;;;;;;;5.90;3.10;;;;;;;18.22;76.74;97898.61;105118;1263;61732;-22
2023/08/02 01:55:17;;;;;;;4.60;3.10;;;;;;;18.65;77.05;97899.14;105284;1264;62512;-22
2023/08/02 01:57:45;;;;;;;4.50;2.90;;;;;;;19.13;75.41;97897.52;105159;1257;72780;-23
2023/08/02 02:00:13;;;;;;;4.60;3.50;;;;;;;19.18;74.66;97895.45;105172;1257;77342;-22
2023/08/02 02:02:43;;;;;;;5.20;3.60;;;;;;;19.02;74.79;97895.25;105228;1260;74150;-22
2023/08/02 02:05:11;;;;;;;5.10;3.60;;;;;;;18.79;75.16;97892.71;105148;1257;61781;-22
2023/08/02 02:07:39;;;;;;;4.40;3.60;;;;;;;18.57;75.56;97893.88;105421;1257;61428;-22
2023/08/02 02:10:07;;;;;;;4.20;2.80;;;;;;;18.39;76.63;97893.46;105549;1257;77785;-22
2023/08/02 02:12:35;;;;;;;4.90;2.70;;;;;;;18.79;76.92;97893.55;105318;1257;74482;-22
2023/08/02 02:15:03;;;;;;;3.70;2.90;;;;;;;19.26;75.36;97891.32;105532;1259;76615;-23
2023/08/02 02:17:32;;;;;;;6.20;2.80;;;;;;;19.28;74.68;97888.52;105291;1264;61157;-22
2023/08/02 02:20:00;;;;;;;5.50;2.90;;;;;;;19.10;74.77;97893.05;105483;1257;63876;-22
2023/08/02 02:22:28;;;;;;;3.70;2.30;;;;;;;18.85;75.29;97889.64;105293;1263;73889;-22
2023/08/02 02:24:56;;;;;;;3.90;3.10;;;;;;;18.62;75.90;97889.36;105108;1257;76754;-22
2023/08/02 02:27:23;;;;;;;3.70;2.30;;;;;;;18.45;76.72;97886.56;105159;1260;75233;-23
2023/08/02 02:29:51;;;;;;;3.70;2.40;;;;;;;18.86;76.80;97885.46;105335;1262;62548;-22
2023/08/02 02:32:19;;;;;;;3.60;3.10;;;;;;;19.35;75.14;97880.16;105159;1262;62462;-23
2023/08/02 02:34:47;;;;;;;3.70;3.20;;;;;;;19.40;74.42;97876.96;105374;1257;73885;-23
2023/08/02 02:37:15;;;;;;;4.60;3.80;;;;;;;19.25;74.50;97872.05;105138;1258;76740;-22
2023/08/02 02:39:42;;;;;;;7.50;3.60;;;;;;;19.01;74.91;97881.67;105078;1257;72762;-22
2023/08/02 02:42:10;;;;;;;4.30;3.20;;;;;;;18.78;75.32;97881.39;105401;1256;62815;-23
2023/08/02 02:44:42;;;;;;;6.10;2.40;;;;;;;18.58;75.82;97881.83;105160;1263;62502;-22
2023/08/02 02:47:10;;;;;;;4.00;1.90;;;;;;;18.97;76.14;97881.67;105176;1258;76177;-23
2023/08/02 02:49:38;;;;;;;3.20;2.50;;;;;;;19.44;74.71;97879.23;105228;1257;76331;-23
2023/08/02 02:52:07;;;;;;;5.00;3.70;;;;;;;19.49;74.05;97878.79;105095;1262;73175;-22
2023/08/02 02:54:34;;;;;;;7.00;5.90;;;;;;;19.32;74.14;97881.71;105179;1257;62931;-23
2023/08/02 02:57:03;;;;;;;8.80;7.40;;;;;;;19.13;74.63;97883.83;105184;1255;61434;-23
2023/08/02 02:59:32;;;;;;;8.10;7.30;;;;;;;18.96;75.16;97884.43;105369;1260;75896;-23
2023/08/02 03:02:00;;;;;;;5.00;4.10;;;;;;;18.83;75.70;97883.20;105535;1252;73209;-22
2023/08/02 03:04:28;;;;;;;5.40;3.80;;;;;;;19.28;75.68;97880.98;105628;1259;75481;-22
2023/08/02 03:06:56;;;;;;;5.50;3.80;;;;;;;19.91;73.90;97875.85;105496;1254;63909;-22
2023/08/02 03:09:24;;;;;;;5.70;4.00;;;;;;;20.17;72.32;97874.60;105546;1256;62361;-22
2023/08/02 03:11:52;;;;;;;6.00;3.90;;;;;;;20.23;71.66;97870.70;105715;1258;76080;-22
2023/08/02 03:14:19;;;;;;;4.80;3.10;;;;;;;20.14;71.59;97876.56;105658;1259;75578;-22
2023/08/02 03:16:47;;;;;;;4.00;3.30;;;;;;;19.96;71.76;97875.99;105703;1254;76550;-22
2023/08/02 03:19:15;;;;;;;9.00;3.30;;;;;;;19.81;72.37;97878.39;105778;1253;61157;-22
2023/08/02 03:21:43;;;;;;;3.30;1.80;;;;;;;19.83;72.75;97877.09;105759;1256;62684;-22
2023/08/02 03:24:12;;;;;;;3.20;2.20;;;;;;;20.48;72.15;97876.86;105628;1252;73904;-22
2023/08/02 03:26:40;;;;;;;2.50;2.10;;;;;;;21.09;70.29;97874.49;105608;1254;77462;-22
2023/08/02 03:29:08;;;;;;;3.80;2.30;;;;;;;21.12;69.50;97876.83;105680;1257;76658;-22
2023/08/02 03:31:36;;;;;;;5.70;3.10;;;;;;;20.91;69.85;97882.63;105632;1254;62483;-22
2023/08/02 03:34:04;;;;;;;3.30;2.70;;;;;;;20.69;70.18;97883.14;105543;1254;61141;-23
2023/08/02 03:36:31;;;;;;;4.80;2.80;;;;;;;20.48;70.86;97882.84;105465;1259;72690;-22
2023/08/02 03:38:59;;;;;;;5.00;2.90;;;;;;;20.35;71.23;97884.92;105426;1259;73237;-22
2023/08/02 03:41:27;;;;;;;5.10;2.00;;;;;;;20.32;71.54;97883.40;105500;1258;72764;-22
2023/08/02 03:43:55;;;;;;;5.20;1.90;;;;;;;20.89;71.36;97883.25;105486;1254;61179;-22
2023/08/02 03:46:23;;;;;;;4.60;2.30;;;;;;;21.59;69.50;97882.14;105513;1253;61626;-22
2023/08/02 03:48:51;;;;;;;3.10;2.60;;;;;;;21.88;68.17;97884.79;105449;1259;75279;-22
2023/08/02 03:51:18;;;;;;;4.30;2.90;;;;;;;22.03;67.52;97886.86;105634;1259;76585;-22
2023/08/02 03:53:46;;;;;;;5.90;4.20;;;;;;;22.13;66.95;97879.17;105670;1261;71354;-22
2023/08/02 03:56:14;;;;;;;6.30;2.90;;;;;;;22.10;66.56;97877.11;105590;1258;63137;-22
2023/08/02 03:58:42;;;;;;;4.80;3.20;;;;;;;21.84;66.75;97877.71;105568;1259;62526;-22
2023/08/02 04:01:10;;;;;;;8.70;3.00;;;;;;;21.49;67.75;97871.91;105526;1259;75643;-22
2023/08/02 04:03:38;;;;;;;4.00;2.90;;;;;;;21.13;68.67;97869.16;105704;1253;78383;-22
2023/08/02 04:06:06;;;;;;;3.40;2.10;;;;;;;20.89;69.88;97865.12;105629;1254;75160;-22
2023/08/02 04:08:34;;;;;;;2.50;2.10;;;;;;;21.33;69.91;97865.36;105558;1259;62381;-22
2023/08/02 04:11:05;;;;;;;2.50;2.00;;;;;;;21.85;68.20;97866.02;105479;1259;62502;-22
2023/08/02 04:13:33;;;;;;;3.90;2.60;;;;;;;21.91;67.71;97863.99;105418;1254;74553;-22
2023/08/02 04:16:02;;;;;;;5.90;2.70;;;;;;;21.78;67.98;97861.25;105708;1254;76835;-22
2023/08/02 04:18:30;;;;;;;4.00;3.30;;;;;;;21.61;68.28;97853.52;105392;1262;73705;-22
2023/08/02 04:20:59;;;;;;;4.40;3.20;;;;;;;21.45;68.82;97851.18;105490;1259;61514;-22
2023/08/02 04:23:27;;;;;;;4.80;3.10;;;;;;;21.42;69.17;97850.70;105549;1254;61434;-22
2023/08/02 04:25:55;;;;;;;4.50;3.20;;;;;;;21.38;69.31;97850.30;105549;1259;73965;-22
2023/08/02 04:28:26;;;;;;;2.80;1.80;;;;;;;21.41;69.55;97849.36;105492;1254;76785;-22
2023/08/02 04:30:54;;;;;;;3.60;2.20;;;;;;;21.90;69.19;97848.84;105618;1259;75280;-22
2023/08/02 04:33:22;;;;;;;2.60;2.40;;;;;;;22.46;67.50;97844.41;105661;1254;61514;-22
2023/08/02 04:35:50;;;;;;;11.00;3.00;;;;;;;22.69;66.43;97841.48;105654;1254;62702;-22
2023/08/02 04:38:18;;;;;;;5.10;3.10;;;;;;;22.78;65.66;97842.70;105656;1259;74966;-22
2023/08/02 04:40:45;;;;;;;5.80;3.60;;;;;;;22.72;65.44;97837.34;105684;1254;78384;-22
2023/08/02 04:43:14;;;;;;;5.20;3.30;;;;;;;22.59;65.82;97835.58;105755;1254;73688;-22
2023/08/02 04:45:41;;;;;;;4.40;2.90;;;;;;;22.55;66.10;97831.67;105696;1254;63375;-22
2023/08/02 04:48:09;;;;;;;5.30;2.80;;;;;;;22.65;65.92;97822.45;105618;1259;62460;-23
2023/08/02 04:50:38;;;;;;;3.60;2.60;;;;;;;22.74;65.58;97817.52;105608;1254;76092;-22
2023/08/02 04:53:06;;;;;;;6.00;3.00;;;;;;;22.81;65.60;97816.02;105516;1254;75821;-23
2023/08/02 04:55:40;;;;;;;3.20;2.90;;;;;;;22.91;65.25;97819.29;105683;1254;76676;-23
2023/08/02 04:58:08;;;;;;;4.20;2.90;;;;;;;23.10;65.29;97814.73;105702;1254;62508;-21
2023/08/02 05:00:36;;;;;;;4.00;1.90;;;;;;;23.28;65.09;97807.47;105660;1259;62302;-21
2023/08/02 05:03:04;;;;;;;59.00;4.70;;;;;;;23.97;64.13;97804.67;105604;1254;76344;-22
2023/08/02 05:05:32;;;;;;;4.20;2.40;;;;;;;24.79;61.88;97802.61;105501;1259;76510;-22
2023/08/02 05:08:01;;;;;;;5.40;2.70;;;;;;;25.18;60.74;97802.77;105534;1254;72739;-22
2023/08/02 05:10:29;;;;;;;3.60;2.50;;;;;;;25.31;60.04;97797.77;105572;1254;63868;-22
2023/08/02 05:20:38;;;;;;;5.40;2.80;;;;;;;25.59;58.50;97781.85;102627;1294;600115;-22
2023/08/02 05:23:05;;;;;;;7.30;2.60;;;;;;;25.41;58.69;97776.46;104817;1267;62031;-22
2023/08/02 05:25:34;;;;;;;4.40;2.60;;;;;;;25.17;58.90;97777.61;104834;1267;61165;-22
2023/08/02 05:28:02;;;;;;;5.20;2.90;;;;;;;25.03;59.59;97784.39;104803;1272;71035;-21
2023/08/02 05:30:31;;;;;;;2.80;2.50;;;;;;;24.87;59.75;97781.80;104818;1266;74418;-21
2023/08/02 05:32:59;;;;;;;3.80;2.80;;;;;;;24.71;60.09;97782.28;104625;1267;71764;-22
2023/08/02 05:35:26;;;;;;;6.10;3.90;;;;;;;24.57;60.38;97783.16;103026;1264;2577318;-22
2023/08/02 05:37:54;;;;;;;8.10;5.30;;;;;;;24.42;60.98;97782.02;104725;1264;61088;-24
2023/08/02 05:40:22;;;;;;;6.80;6.20;;;;;;;24.28;61.33;97782.84;104755;1270;73580;-21
2023/08/02 05:42:50;;;;;;;7.60;5.70;;;;;;;24.14;61.91;97782.67;104799;1269;76912;-22
2023/08/02 05:45:18;;;;;;;12.20;4.40;;;;;;;24.03;62.16;97784.69;104854;1266;72730;-22
2023/08/02 05:47:49;;;;;;;5.70;3.70;;;;;;;23.90;62.74;97784.78;104943;1264;62523;-22
2023/08/02 05:50:17;;;;;;;4.90;3.30;;;;;;;23.79;63.26;97778.95;104976;1264;62499;-22
2023/08/02 05:52:45;;;;;;;3.50;3.10;;;;;;;23.72;63.64;97779.78;104828;1265;75805;-21
2023/08/02 05:55:14;;;;;;;3.40;2.80;;;;;;;23.68;63.98;97777.28;104972;1263;75748;-21
2023/08/02 05:57:42;;;;;;;3.00;2.70;;;;;;;23.69;64.16;97778.09;105048;1264;76702;-21
2023/08/02 06:00:10;;;;;;;15.90;3.50;;;;;;;23.71;64.23;97779.30;104898;1263;62745;-22
2023/08/02 06:02:38;;;;;;;3.10;2.80;;;;;;;23.77;64.34;97778.44;104949;1269;62489;-21
2023/08/02 06:05:07;;;;;;;7.30;3.70;;;;;;;23.90;64.11;97775.43;104927;1269;74906;-22
2023/08/02 06:07:35;;;;;;;4.90;2.60;;;;;;;24.06;64.27;97773.14;104804;1264;73267;-21
2023/08/02 06:10:03;;;;;;;3.20;2.70;;;;;;;24.86;63.11;97767.33;104758;1264;72728;-21
2023/08/02 06:12:31;;;;;;;4.00;2.60;;;;;;;25.80;60.74;97762.34;104843;1265;61229;-22
2023/08/02 06:14:59;;;;;;;4.90;2.70;;;;;;;26.27;59.01;97762.74;104775;1269;61342;-22
2023/08/02 06:17:27;;;;;;;4.50;2.70;;;;;;;26.49;58.07;97762.05;104818;1269;75884;-22
2023/08/02 06:19:55;;;;;;;2.60;2.40;;;;;;;26.57;57.59;97759.73;104749;1264;74416;-22
2023/08/02 06:22:23;;;;;;;3.90;2.20;;;;;;;26.58;56.66;97762.40;105007;1269;76558;-22
2023/08/02 06:24:50;;;;;;;6.20;2.50;;;;;;;26.60;56.84;97764.48;104981;1266;61078;-21
2023/08/02 06:27:18;;;;;;;3.80;3.40;;;;;;;26.42;55.92;97766.34;104888;1264;61455;-22
2023/08/02 06:29:46;;;;;;;3.30;3.00;;;;;;;26.39;57.08;97770.23;104864;1268;74377;-22
2023/08/02 06:32:14;;;;;;;2.40;2.20;;;;;;;26.18;56.98;97774.85;105062;1269;76793;-22
2023/08/02 06:34:42;;;;;;;2.90;2.30;;;;;;;26.11;57.26;97770.22;104751;1267;76664;-21
2023/08/02 06:37:10;;;;;;;2.20;2.00;;;;;;;26.25;57.49;97767.92;104974;1264;62228;-21
2023/08/02 06:39:38;;;;;;;2.50;2.30;;;;;;;26.40;57.09;97767.58;105264;1264;62047;-22
2023/08/02 06:42:06;;;;;;;3.10;2.10;;;;;;;26.51;57.30;97767.17;105483;1257;76885;-21
2023/08/02 06:44:34;;;;;;;2.60;2.30;;;;;;;26.54;57.42;97769.48;105199;1257;73481;-22
2023/08/02 06:47:02;;;;;;;4.80;2.30;;;;;;;26.62;57.18;97770.27;105136;1260;76644;-22
2023/08/02 06:49:34;;;;;;;2.30;2.10;;;;;;;26.60;56.95;97764.80;105301;1262;62863;-22
2023/08/02 06:52:02;;;;;;;9.00;2.80;;;;;;;26.66;57.01;97762.96;105268;1257;61129;-23
2023/08/02 06:54:30;;;;;;;2.20;1.80;;;;;;;26.82;56.97;97758.97;105484;1263;72111;-23
2023/08/02 06:56:58;;;;;;;2.60;2.30;;;;;;;26.98;55.62;97760.61;105252;1262;76581;-22
2023/08/02 06:59:26;;;;;;;4.00;2.80;;;;;;;27.10;55.31;97755.02;105513;1263;75173;-23
2023/08/02 07:01:54;;;;;;;5.90;2.80;;;;;;;27.18;54.96;97751.41;105459;1262;64003;-23
2023/08/02 07:04:22;;;;;;;8.40;2.60;;;;;;;27.10;53.49;97754.61;105472;1257;62497;-23
2023/08/02 07:06:50;;;;;;;3.70;2.30;;;;;;;27.05;53.85;97755.08;105474;1262;76908;-23
2023/08/02 07:09:18;;;;;;;9.30;2.50;;;;;;;27.00;53.93;97757.41;105429;1262;76892;-23
2023/08/02 07:11:45;;;;;;;2.70;2.20;;;;;;;26.97;54.47;97760.52;105349;1262;74196;-23
2023/08/02 07:14:14;;;;;;;2.50;2.10;;;;;;;26.93;54.43;97763.86;105392;1258;62809;-23
2023/08/02 07:16:41;;;;;;;2.50;2.10;;;;;;;26.91;54.58;97758.90;105482;1262;61243;-23
2023/08/02 07:19:09;;;;;;;4.00;2.10;;;;;;;26.88;55.04;97763.71;105511;1262;75558;-23
2023/08/02 07:21:39;;;;;;;4.90;2.10;;;;;;;26.88;54.45;97759.27;105415;1262;75767;-23
2023/08/02 07:24:08;;;;;;;3.00;2.20;;;;;;;26.82;54.47;97757.59;105208;1257;73206;-21
2023/08/02 07:26:36;;;;;;;3.30;2.00;;;;;;;26.74;54.25;97761.71;105473;1262;62801;-23
2023/08/02 07:29:04;;;;;;;6.40;3.40;;;;;;;26.67;54.55;97763.88;105320;1262;62495;-22
2023/08/02 07:31:31;;;;;;;5.50;2.60;;;;;;;26.70;55.19;97762.39;105250;1262;75538;-22
2023/08/02 07:33:59;;;;;;;2.40;2.20;;;;;;;26.81;54.93;97757.52;105246;1263;78640;-22
2023/08/02 07:36:27;;;;;;;2.50;2.30;;;;;;;26.77;54.98;97756.60;105103;1263;76842;-22
2023/08/02 07:38:55;;;;;;;2.80;1.80;;;;;;;26.82;55.39;97757.86;105124;1257;62847;-22
2023/08/02 07:41:23;;;;;;;3.70;2.80;;;;;;;26.84;54.74;97763.96;105064;1257;61483;-22
2023/08/02 07:43:50;;;;;;;3.70;3.40;;;;;;;26.81;54.43;97764.11;105311;1263;73167;-22
2023/08/02 07:46:19;;;;;;;7.20;6.30;;;;;;;26.69;54.38;97761.84;105363;1263;76750;-22
2023/08/02 07:48:50;;;;;;;3.10;2.80;;;;;;;26.48;55.70;97765.46;105296;1266;71482;-22
2023/08/02 07:51:18;;;;;;;2.50;2.30;;;;;;;26.55;55.46;97760.30;105245;1264;62858;-22
2023/08/02 08:01:24;;;;;;;6.10;2.20;;;;;;;27.47;54.01;97754.17;102664;1292;600249;-22
2023/08/02 08:03:52;;;;;;;5.00;2.60;;;;;;;27.57;53.60;97758.94;105144;1264;62859;-22
2023/08/02 08:06:23;;;;;;;6.00;5.40;;;;;;;27.61;54.01;97757.39;104963;1264;62740;-22
2023/08/02 08:08:51;;;;;;;3.10;2.80;;;;;;;27.64;54.03;97751.02;104780;1263;71393;-22
2023/08/02 08:11:19;;;;;;;3.90;2.60;;;;;;;27.80;52.45;97745.27;104837;1270;75777;-22
2023/08/02 08:13:52;;;;;;;5.50;2.50;;;;;;;27.92;51.34;97749.11;103612;1270;2883100;-23
2023/08/02 08:16:20;;;;;;;18.90;4.00;;;;;;;27.86;51.66;97747.61;104872;1263;61752;-22
2023/08/02 08:18:48;;;;;;;12.60;2.70;;;;;;;27.83;51.58;97748.79;105145;1266;61096;-22
2023/08/02 08:21:18;;;;;;;3.00;2.30;;;;;;;27.89;52.95;97747.23;105159;1260;75693;-22
2023/08/02 08:23:46;;;;;;;5.90;3.00;;;;;;;27.56;52.45;97754.90;105197;1261;76558;-22
2023/08/02 08:26:14;;;;;;;10.50;5.10;;;;;;;27.20;53.54;97756.92;105196;1267;75449;-22
2023/08/02 08:28:42;;;;;;;3.50;3.20;;;;;;;27.00;54.08;97756.52;105214;1267;61512;-23
2023/08/02 08:31:10;;;;;;;5.80;4.30;;;;;;;26.96;54.02;97751.38;105079;1263;61208;-23
2023/08/02 08:33:38;;;;;;;5.10;3.50;;;;;;;26.71;54.52;97753.10;105072;1268;75005;-23
2023/08/02 08:36:15;;;;;;;103.60;9.30;;;;;;;26.53;55.07;97759.98;105086;1263;76116;-23
2023/08/02 08:38:43;;;;;;;21.20;19.00;;;;;;;26.36;56.49;97764.23;104844;1271;74216;-23
2023/08/02 08:41:13;;;;;;;5.20;4.10;;;;;;;26.43;56.82;97767.73;105009;1263;63891;-22
2023/08/02 08:43:41;;;;;;;4.60;3.40;;;;;;;26.70;56.72;97762.45;104861;1262;61260;-23
2023/08/02 08:46:12;;;;;;;3.20;2.70;;;;;;;26.87;55.40;97760.98;105065;1263;75522;-22
2023/08/02 08:48:41;;;;;;;3.20;2.70;;;;;;;26.83;55.02;97757.65;104772;1263;78479;-23
2023/08/02 08:51:09;;;;;;;4.70;2.40;;;;;;;26.92;55.96;97762.59;105101;1269;75591;-23
2023/08/02 08:53:42;;;;;;;6.70;2.70;;;;;;;27.08;55.44;97764.01;104894;1270;61806;-23
2023/08/02 08:56:10;;;;;;;;;;;;;;;27.14;54.94;97762.95;104919;1270;61216;-23
2023/08/02 08:58:38;;;;;;;7.00;2.60;;;;;;;27.10;55.05;97761.98;105094;1261;76859;-22
2023/08/02 09:01:06;;;;;;;4.30;2.60;;;;;;;26.99;54.91;97765.86;105015;1261;76806;-23
2023/08/02 09:03:34;;;;;;;8.10;3.00;;;;;;;26.82;55.27;97768.21;105110;1260;75551;-22
2023/08/02 09:06:03;;;;;;;8.80;2.50;;;;;;;26.63;54.86;97767.52;105148;1263;62426;-23
2023/08/02 09:08:45;;;;;;;5.00;2.30;;;;;;;26.14;55.90;97773.82;104876;1270;62461;-23
2023/08/02 09:11:13;;;;;;;3.20;2.60;;;;;;;26.16;55.95;97770.58;105047;1262;74307;-22
2023/08/02 09:13:41;;;;;;;4.80;2.20;;;;;;;26.03;56.37;97770.80;105060;1262;78406;-23
2023/08/02 09:16:10;;;;;;;6.00;2.50;;;;;;;25.88;56.93;97767.41;105124;1267;76761;-23
2023/08/02 09:18:44;;;;;;;4.60;2.80;;;;;;;26.29;56.88;97762.97;104965;1263;63952;-23
2023/08/02 09:21:14;;;;;;;;;;;;;;;26.67;56.43;97760.88;105182;1263;62712;-23
2023/08/02 09:23:56;;;;;;;5.00;3.20;;;;;;;26.82;56.24;97761.11;105112;1268;73090;-23
2023/08/02 09:26:24;;;;;;;5.00;4.60;;;;;;;26.58;54.54;97757.44;104912;1268;73278;-23
2023/08/02 09:29:05;;;;;;;4.20;3.10;;;;;;;26.68;55.02;97750.31;105001;1263;72782;-23
2023/08/02 09:31:35;;;;;;;3.60;2.70;;;;;;;26.72;54.62;97756.85;104888;1266;61071;-23
2023/08/02 09:34:03;;;;;;;4.20;2.60;;;;;;;26.37;55.14;97751.59;104838;1270;62543;-23
2023/08/02 09:36:33;;;;;;;3.90;3.50;;;;;;;26.61;55.30;97750.08;104854;1263;73120;-23
2023/08/02 09:39:11;;;;;;;4.30;3.00;;;;;;;27.01;55.07;97746.20;104802;1263;78432;-23
2023/08/02 09:41:39;;;;;;;10.60;2.90;;;;;;;27.29;54.99;97738.60;104866;1270;73430;-23
2023/08/02 09:44:24;;;;;;;16.00;3.30;;;;;;;26.75;54.43;97741.27;105156;1263;61582;-23
2023/08/02 09:46:52;;;;;;;4.80;3.10;;;;;;;26.83;55.89;97737.55;105145;1262;62752;-23
2023/08/02 09:49:21;;;;;;;10.20;3.00;;;;;;;27.28;54.31;97733.68;105032;1263;73128;-23
2023/08/02 09:51:49;;;;;;;5.30;2.50;;;;;;;27.17;53.24;97729.87;104786;1263;78744;-22
2023/08/02 09:54:17;;;;;;;5.70;3.00;;;;;;;26.98;53.35;97731.34;105078;1262;72847;-22
2023/08/02 09:56:45;;;;;;;6.50;3.50;;;;;;;27.14;53.04;97722.77;105161;1262;62559;-22
2023/08/02 09:59:13;;;;;;;12.10;3.10;;;;;;;27.38;52.60;97714.22;104958;1260;61386;-23
2023/08/02 10:01:42;;;;;;;5.10;4.60;;;;;;;27.63;52.69;97714.02;104959;1267;72871;-23
2023/08/02 10:04:10;;;;;;;3.60;3.30;;;;;;;27.96;51.83;97706.40;105232;1260;77994;-23
2023/08/02 10:06:49;;;;;;;6.50;2.90;;;;;;;27.69;51.99;97704.38;105210;1263;72676;-23
2023/08/02 10:09:19;;;;;;;5.10;3.00;;;;;;;27.45;53.01;97702.95;105133;1262;62546;-23
2023/08/02 10:11:57;;;;;;;4.20;3.00;;;;;;;27.52;52.49;97702.75;105082;1270;62674;-23
2023/08/02 10:14:25;;;;;;;4.60;2.70;;;;;;;27.53;52.88;97706.27;105243;1260;73107;-23
2023/08/02 10:16:53;;;;;;;7.40;2.80;;;;;;;27.42;51.87;97708.71;105226;1260;76852;-23
2023/08/02 10:19:21;;;;;;;8.60;3.60;;;;;;;27.19;53.82;97711.55;105202;1265;75178;-23
2023/08/02 10:21:48;;;;;;;5.00;3.00;;;;;;;26.69;54.95;97719.45;105070;1263;61199;-23
2023/08/02 10:24:16;;;;;;;6.30;3.80;;;;;;;26.27;55.98;97725.50;105118;1265;61123;-23
2023/08/02 10:26:44;;;;;;;7.60;3.80;;;;;;;26.21;56.72;97727.86;105206;1264;73099;-23
2023/08/02 10:29:12;;;;;;;5.20;3.80;;;;;;;25.94;58.57;97728.73;105471;1257;78476;-23
2023/08/02 10:31:41;;;;;;;6.80;4.20;;;;;;;25.81;59.32;97732.80;105252;1264;72673;-24
2023/08/02 10:34:34;;;;;;;10.10;4.00;;;;;;;25.86;59.51;97735.61;105512;1262;63008;-23
2023/08/02 10:37:02;;;;;;;4.60;3.20;;;;;;;25.77;59.04;97731.55;105512;1256;61491;-24
2023/08/02 10:39:46;;;;;;;5.70;4.00;;;;;;;25.79;59.01;97729.75;105550;1256;75753;-23
2023/08/02 10:42:19;;;;;;;7.70;4.10;;;;;;;26.01;58.41;97725.36;105467;1254;78589;-23
2023/08/02 10:44:56;;;;;;;5.20;3.70;;;;;;;26.11;58.38;97718.42;105321;1256;75190;-23
2023/08/02 10:47:28;;;;;;;81.00;8.60;;;;;;;25.99;58.22;97730.46;105445;1253;61047;-23
2023/08/02 10:49:56;;;;;;;9.90;4.50;;;;;;;26.07;58.09;97731.83;105587;1254;61162;-22
2023/08/02 11:00:18;;;;;;;5.90;4.50;;;;;;;26.04;58.08;97752.31;102777;1289;599931;-23
2023/08/02 11:02:48;;;;;;;5.70;4.30;;;;;;;25.88;58.19;97758.23;104858;1264;61939;-22
2023/08/02 11:05:35;;;;;;;7.90;4.80;;;;;;;25.87;57.65;97755.60;104788;1264;61148;-22
2023/08/02 11:08:03;;;;;;;38.90;6.10;;;;;;;25.90;56.98;97763.68;104891;1269;74645;-22
2023/08/02 11:10:31;;;;;;;8.30;4.30;;;;;;;25.81;56.74;97767.68;105025;1267;76876;-22
2023/08/02 11:12:59;;;;;;;27.30;6.00;;;;;;;25.61;56.61;97762.30;103068;1261;2748841;-22
2023/08/02 11:15:29;;;;;;;6.70;4.60;;;;;;;25.42;57.62;97762.13;105213;1263;61263;-22
2023/08/02 11:17:57;;;;;;;9.00;4.80;;;;;;;25.32;57.51;97769.23;105054;1266;61183;-22
2023/08/02 11:20:26;;;;;;;4.60;4.20;;;;;;;25.20;58.20;97766.52;105146;1263;75988;-22
2023/08/02 11:22:55;;;;;;;6.80;4.60;;;;;;;25.15;58.45;97772.16;105182;1260;77387;-23
2023/08/02 11:25:22;;;;;;;11.00;5.20;;;;;;;25.02;58.41;97771.40;105364;1261;75212;-22
2023/08/02 11:28:03;;;;;;;7.40;5.40;;;;;;;24.80;58.44;97777.49;105133;1261;61568;-22
2023/08/02 11:30:33;;;;;;;8.50;5.60;;;;;;;24.68;59.45;97783.36;105278;1260;61816;-22
2023/08/02 11:33:01;;;;;;;10.40;5.70;;;;;;;24.60;60.33;97782.72;105248;1260;75457;-22
2023/08/02 11:35:29;;;;;;;7.50;5.10;;;;;;;24.71;60.25;97783.88;105157;1260;74593;-22
2023/08/02 11:37:57;;;;;;;6.10;5.50;;;;;;;24.91;60.54;97792.11;105014;1267;70783;-24
2023/08/02 11:40:37;;;;;;;6.50;5.10;;;;;;;25.08;60.60;97790.52;105083;1263;61250;-24
2023/08/02 11:43:09;;;;;;;7.30;5.00;;;;;;;25.22;59.58;97788.10;105282;1266;61201;-23
2023/08/02 11:45:37;;;;;;;36.50;7.20;;;;;;;25.27;59.35;97788.48;105255;1261;71912;-23
2023/08/02 11:48:05;;;;;;;6.10;4.70;;;;;;;25.26;59.44;97788.84;105204;1266;73620;-22
2023/08/02 11:50:38;;;;;;;6.50;4.90;;;;;;;25.27;59.21;97787.08;105214;1266;71849;-23
2023/08/02 11:53:07;;;;;;;5.50;4.60;;;;;;;25.29;59.23;97788.86;105253;1267;61844;-23
2023/08/02 11:55:36;;;;;;;10.40;5.60;;;;;;;25.27;58.22;97783.20;105157;1265;61167;-23